Gagarin, Russia
Current Conditions -  °F | °C
As of 12:30 AM on Wednesday 22 Oct 2014 (Local Time) from UUBW Reporting Station
Overcast Overcast  
Wind Chill: 15°   Ceiling: 1200
Heat Index: 27°   Visibility: 6mi
Dew Point: 19°   Wind: 13mph
Humidity: 74%   Direction: 350°N
Pressure: 29.62"   Gusts: NA
Location:  55.55°N, 35°E
Report Text: UUBW 212130Z 35006MPS 9999 OVC012 M03/M07 Q1003 NOSIG RMKSC050
Loading
Personal Weather Stations






























Interactive Weather Map
Tropical Storm Tracking
New forecast layout! Learn more

10-Day Weather Forecast

Advertisements
Track Severe Weather on mobile